sensor_id;sensor_type;location;lat;lon;timestamp;P1;P2;P0
31163;PMS5003;17796;49.296;-117.656;2022-12-18T00:03:20;30;21;
31163;PMS5003;17796;49.296;-117.656;2022-12-18T00:18:24;16;14;
31163;PMS5003;17796;49.296;-117.656;2022-12-18T00:33:28;29;17;
31163;PMS5003;17796;49.296;-117.656;2022-12-18T00:48:32;14;13;
31163;PMS5003;17796;49.296;-117.656;2022-12-18T01:03:35;18;15;
31163;PMS5003;17796;49.296;-117.656;2022-12-18T01:18:39;27;17;
31163;PMS5003;17796;49.296;-117.656;2022-12-18T01:33:44;20;17;
31163;PMS5003;17796;49.296;-117.656;2022-12-18T01:48:52;18;15;
31163;PMS5003;17796;49.296;-117.656;2022-12-18T02:04:20;25;19;
31163;PMS5003;17796;49.296;-117.656;2022-12-18T02:19:42;25;15;
31163;PMS5003;17796;49.296;-117.656;2022-12-18T02:34:49;25;18;
31163;PMS5003;17796;49.296;-117.656;2022-12-18T02:50:02;23;18;
31163;PMS5003;17796;49.296;-117.656;2022-12-18T03:05:14;26;21;
31163;PMS5003;17796;49.296;-117.656;2022-12-18T03:20:21;39;21;
31163;PMS5003;17796;49.296;-117.656;2022-12-18T03:35:29;33;27;
31163;PMS5003;17796;49.296;-117.656;2022-12-18T03:50:40;41;25;
31163;PMS5003;17796;49.296;-117.656;2022-12-18T04:05:46;33;27;
31163;PMS5003;17796;49.296;-117.656;2022-12-18T04:20:51;26;23;
31163;PMS5003;17796;49.296;-117.656;2022-12-18T04:35:55;25;22;
31163;PMS5003;17796;49.296;-117.656;2022-12-18T04:50:59;35;28;
31163;PMS5003;17796;49.296;-117.656;2022-12-18T05:06:03;31;25;
31163;PMS5003;17796;49.296;-117.656;2022-12-18T05:21:07;39;28;
31163;PMS5003;17796;49.296;-117.656;2022-12-18T05:36:11;34;23;
31163;PMS5003;17796;49.296;-117.656;2022-12-18T05:51:17;26;22;
31163;PMS5003;17796;49.296;-117.656;2022-12-18T06:06:23;37;29;
31163;PMS5003;17796;49.296;-117.656;2022-12-18T06:21:28;27;19;
31163;PMS5003;17796;49.296;-117.656;2022-12-18T06:36:32;42;35;
31163;PMS5003;17796;49.296;-117.656;2022-12-18T06:51:36;29;22;
31163;PMS5003;17796;49.296;-117.656;2022-12-18T07:06:40;29;25;
31163;PMS5003;17796;49.296;-117.656;2022-12-18T07:21:44;27;23;
31163;PMS5003;17796;49.296;-117.656;2022-12-18T07:36:48;29;19;
31163;PMS5003;17796;49.296;-117.656;2022-12-18T07:51:53;23;18;
31163;PMS5003;17796;49.296;-117.656;2022-12-18T08:06:58;15;15;
31163;PMS5003;17796;49.296;-117.656;2022-12-18T08:22:01;15;12;
31163;PMS5003;17796;49.296;-117.656;2022-12-18T08:37:05;15;12;
31163;PMS5003;17796;49.296;-117.656;2022-12-18T08:52:09;11;8;
31163;PMS5003;17796;49.296;-117.656;2022-12-18T09:07:12;12;8;
31163;PMS5003;17796;49.296;-117.656;2022-12-18T09:22:16;9;7;
31163;PMS5003;17796;49.296;-117.656;2022-12-18T09:37:20;13;9;
31163;PMS5003;17796;49.296;-117.656;2022-12-18T09:52:28;5;5;
31163;PMS5003;17796;49.296;-117.656;2022-12-18T10:07:46;7;5;
31163;PMS5003;17796;49.296;-117.656;2022-12-18T10:22:57;7;5;
31163;PMS5003;17796;49.296;-117.656;2022-12-18T10:38:03;8;6;
31163;PMS5003;17796;49.296;-117.656;2022-12-18T10:53:13;8;8;
31163;PMS5003;17796;49.296;-117.656;2022-12-18T11:08:21;8;7;
31163;PMS5003;17796;49.296;-117.656;2022-12-18T11:23:25;11;9;
31163;PMS5003;17796;49.296;-117.656;2022-12-18T11:38:32;12;8;
31163;PMS5003;17796;49.296;-117.656;2022-12-18T11:53:37;11;8;
31163;PMS5003;17796;49.296;-117.656;2022-12-18T12:08:51;14;11;
31163;PMS5003;17796;49.296;-117.656;2022-12-18T12:24:03;8;8;
31163;PMS5003;17796;49.296;-117.656;2022-12-18T12:39:13;15;9;
31163;PMS5003;17796;49.296;-117.656;2022-12-18T12:54:21;8;8;
31163;PMS5003;17796;49.296;-117.656;2022-12-18T13:09:31;8;7;
31163;PMS5003;17796;49.296;-117.656;2022-12-18T13:24:35;8;8;
31163;PMS5003;17796;49.296;-117.656;2022-12-18T13:39:38;8;7;
31163;PMS5003;17796;49.296;-117.656;2022-12-18T13:54:43;11;5;
31163;PMS5003;17796;49.296;-117.656;2022-12-18T14:09:51;10;10;
31163;PMS5003;17796;49.296;-117.656;2022-12-18T14:25:14;10;10;
31163;PMS5003;17796;49.296;-117.656;2022-12-18T14:40:19;11;10;
31163;PMS5003;17796;49.296;-117.656;2022-12-18T14:55:22;7;7;
31163;PMS5003;17796;49.296;-117.656;2022-12-18T15:10:28;7;7;
31163;PMS5003;17796;49.296;-117.656;2022-12-18T15:25:34;8;8;
31163;PMS5003;17796;49.296;-117.656;2022-12-18T15:40:39;5;5;
31163;PMS5003;17796;49.296;-117.656;2022-12-18T15:55:43;5;5;
31163;PMS5003;17796;49.296;-117.656;2022-12-18T16:10:47;5;4;
31163;PMS5003;17796;49.296;-117.656;2022-12-18T16:25:50;4;2;
31163;PMS5003;17796;49.296;-117.656;2022-12-18T16:40:54;7;7;
31163;PMS5003;17796;49.296;-117.656;2022-12-18T16:55:57;5;5;
31163;PMS5003;17796;49.296;-117.656;2022-12-18T17:11:05;10;5;
31163;PMS5003;17796;49.296;-117.656;2022-12-18T17:26:10;5;5;
31163;PMS5003;17796;49.296;-117.656;2022-12-18T17:41:14;4;4;
31163;PMS5003;17796;49.296;-117.656;2022-12-18T17:56:19;7;5;
31163;PMS5003;17796;49.296;-117.656;2022-12-18T18:11:24;7;5;
31163;PMS5003;17796;49.296;-117.656;2022-12-18T18:26:30;5;4;
31163;PMS5003;17796;49.296;-117.656;2022-12-18T18:41:33;5;5;
31163;PMS5003;17796;49.296;-117.656;2022-12-18T18:56:38;9;8;
31163;PMS5003;17796;49.296;-117.656;2022-12-18T19:11:42;11;10;
31163;PMS5003;17796;49.296;-117.656;2022-12-18T19:26:46;12;12;
31163;PMS5003;17796;49.296;-117.656;2022-12-18T19:41:49;15;14;
31163;PMS5003;17796;49.296;-117.656;2022-12-18T19:56:53;18;14;
31163;PMS5003;17796;49.296;-117.656;2022-12-18T20:11:56;14;11;
31163;PMS5003;17796;49.296;-117.656;2022-12-18T20:27:00;11;7;
31163;PMS5003;17796;49.296;-117.656;2022-12-18T20:42:04;26;20;
31163;PMS5003;17796;49.296;-117.656;2022-12-18T20:57:08;20;13;
31163;PMS5003;17796;49.296;-117.656;2022-12-18T21:12:13;20;10;
31163;PMS5003;17796;49.296;-117.656;2022-12-18T21:27:16;11;11;
31163;PMS5003;17796;49.296;-117.656;2022-12-18T21:42:20;13;11;
31163;PMS5003;17796;49.296;-117.656;2022-12-18T21:57:24;16;13;
31163;PMS5003;17796;49.296;-117.656;2022-12-18T22:12:27;20;8;
31163;PMS5003;17796;49.296;-117.656;2022-12-18T22:27:31;8;8;
31163;PMS5003;17796;49.296;-117.656;2022-12-18T22:42:35;15;14;
31163;PMS5003;17796;49.296;-117.656;2022-12-18T22:57:39;16;14;
31163;PMS5003;17796;49.296;-117.656;2022-12-18T23:12:42;13;11;
31163;PMS5003;17796;49.296;-117.656;2022-12-18T23:27:46;14;11;
31163;PMS5003;17796;49.296;-117.656;2022-12-18T23:42:50;10;7;
31163;PMS5003;17796;49.296;-117.656;2022-12-18T23:57:54;14;8;
